Time;durP1;ratioP1;P1;durP2;ratioP2;P2;SDS_P1;SDS_P2;PMS_P1;PMS_P2;Temp;Humidity;BMP_temperature;BMP_pressure;BME280_temperature;BME280_humidity;BME280_pressure;Samples;Min_cycle;Max_cycle;Signal;HPM_P1;HPM_P2
2021/04/27 00:01:02;;;;;;;3.55;1.95;;;7.80;1.00;;;;;;5049134;28;20028;-73
2021/04/27 00:03:28;;;;;;;4.70;2.17;;;8.00;1.00;;;;;;5036666;28;20053;-73
2021/04/27 00:05:53;;;;;;;5.47;2.28;;;8.00;1.00;;;;;;5046807;28;20095;-73
2021/04/27 00:08:25;;;;;;;2.97;1.80;;;8.10;1.00;;;;;;5036781;28;20025;-73
2021/04/27 00:10:50;;;;;;;4.63;1.92;;;8.20;1.00;;;;;;5043015;28;20025;-81
2021/04/27 00:13:16;;;;;;;2.45;2.10;;;8.10;1.00;;;;;;5037747;28;20041;-78
2021/04/27 00:15:42;;;;;;;2.40;1.92;;;8.10;1.00;;;;;;5058089;28;20036;-80
2021/04/27 00:18:14;;;;;;;3.78;2.25;;;8.00;1.00;;;;;;5059133;28;20037;-76
2021/04/27 00:20:43;;;;;;;3.13;2.03;;;7.80;1.00;;;;;;5041248;28;20025;-77
2021/04/27 00:23:08;;;;;;;6.60;2.17;;;7.80;1.00;;;;;;5054346;28;20032;-78
2021/04/27 00:25:34;;;;;;;3.13;1.98;;;7.70;1.00;;;;;;5041085;28;20472;-73
2021/04/27 00:28:00;;;;;;;3.15;2.10;;;7.60;1.00;;;;;;5046236;28;20032;-72
2021/04/27 00:30:28;;;;;;;4.57;2.25;;;7.60;1.00;;;;;;5037986;28;20360;-71
2021/04/27 00:32:54;;;;;;;7.55;2.40;;;7.50;1.00;;;;;;5038170;28;20354;-71
2021/04/27 00:35:20;;;;;;;5.82;2.58;;;7.30;1.00;;;;;;5036675;28;20021;-71
2021/04/27 00:37:46;;;;;;;3.85;2.10;;;7.30;1.00;;;;;;5040621;28;20115;-71
2021/04/27 00:40:15;;;;;;;3.03;2.13;;;7.30;1.00;;;;;;5037121;28;20503;-72
2021/04/27 00:42:45;;;;;;;4.18;2.30;;;7.20;1.00;;;;;;5048893;28;20457;-72
2021/04/27 00:45:12;;;;;;;4.97;2.22;;;7.10;4.00;;;;;;5043459;28;20018;-72
2021/04/27 00:47:38;;;;;;;4.50;2.22;;;7.10;6.00;;;;;;5051906;28;20108;-70
2021/04/27 00:50:10;;;;;;;2.22;1.98;;;7.10;8.20;;;;;;5051721;28;20405;-71
2021/04/27 00:52:36;;;;;;;3.05;2.30;;;7.10;10.50;;;;;;5042391;28;20029;-72
2021/04/27 00:55:03;;;;;;;2.60;2.03;;;7.20;12.90;;;;;;5041357;28;20051;-72
2021/04/27 00:57:29;;;;;;;2.97;1.60;;;7.20;10.50;;;;;;5047568;28;20032;-72
2021/04/27 00:59:57;;;;;;;2.53;1.92;;;7.40;10.80;;;;;;5049557;28;20013;-72
2021/04/27 01:02:23;;;;;;;3.08;2.10;;;7.40;11.80;;;;;;5045998;28;20115;-71
2021/04/27 01:04:48;;;;;;;2.83;2.30;;;7.30;11.50;;;;;;5049386;28;20100;-71
2021/04/27 01:07:16;;;;;;;4.47;2.05;;;7.20;14.20;;;;;;5044062;28;20025;-71
2021/04/27 01:09:47;;;;;;;4.05;2.35;;;7.30;13.60;;;;;;5047957;28;20104;-72
2021/04/27 01:12:34;;;;;;;5.45;2.20;;;7.40;12.70;;;;;;5044112;28;20025;-71
2021/04/27 01:15:10;;;;;;;9.13;3.25;;;7.30;14.00;;;;;;5037930;28;20029;-72
2021/04/27 01:17:38;;;;;;;3.50;2.33;;;7.30;15.10;;;;;;5033298;28;20030;-72
2021/04/27 01:20:06;;;;;;;10.70;2.50;;;7.40;16.90;;;;;;5032111;28;20017;-72
2021/04/27 01:22:43;;;;;;;4.80;2.53;;;7.30;17.50;;;;;;5046100;28;20112;-72
2021/04/27 01:25:10;;;;;;;3.75;2.65;;;7.30;20.20;;;;;;5033318;28;20018;-72
2021/04/27 01:27:36;;;;;;;2.83;1.90;;;7.10;23.30;;;;;;5034625;28;20040;-72
2021/04/27 01:30:04;;;;;;;2.97;2.47;;;7.00;25.90;;;;;;5045597;28;20025;-71
2021/04/27 01:32:30;;;;;;;5.45;2.78;;;7.00;32.90;;;;;;5054690;28;20025;-72
2021/04/27 01:34:56;;;;;;;3.47;2.25;;;6.90;39.70;;;;;;5049408;28;20026;-71
2021/04/27 01:37:23;;;;;;;4.13;2.42;;;6.90;42.20;;;;;;5043971;28;20044;-72
2021/04/27 01:39:50;;;;;;;2.75;2.20;;;6.70;50.60;;;;;;5048236;28;20088;-72
2021/04/27 01:42:15;;;;;;;5.25;2.28;;;6.60;62.60;;;;;;5052851;28;20017;-72
2021/04/27 01:44:43;;;;;;;5.63;2.67;;;6.60;73.30;;;;;;5055760;28;20117;-71
2021/04/27 01:47:09;;;;;;;2.95;2.35;;;6.60;84.80;;;;;;5054037;28;20072;-71
2021/04/27 01:49:36;;;;;;;4.88;2.90;;;6.80;91.80;;;;;;5053027;28;20028;-71
2021/04/27 01:52:02;;;;;;;3.83;2.47;;;6.70;94.70;;;;;;5049166;28;20047;-71
2021/04/27 01:54:29;;;;;;;4.13;2.80;;;6.80;97.80;;;;;;5047232;28;20146;-71
2021/04/27 01:56:56;;;;;;;3.83;2.35;;;6.80;99.90;;;;;;5054964;28;20040;-71
2021/04/27 01:59:22;;;;;;;4.05;2.67;;;6.80;99.90;;;;;;5047164;28;20013;-72
2021/04/27 02:01:47;;;;;;;2.60;2.03;;;6.70;99.90;;;;;;5054136;28;20314;-72
2021/04/27 02:04:28;;;;;;;2.95;2.47;;;6.70;99.90;;;;;;5048049;28;20052;-71
2021/04/27 02:06:54;;;;;;;3.63;1.90;;;6.70;99.90;;;;;;5063866;28;20020;-71
2021/04/27 02:09:26;;;;;;;3.05;2.38;;;6.70;99.90;;;;;;5052498;28;20038;-72
2021/04/27 02:11:53;;;;;;;5.00;3.28;;;6.50;99.90;;;;;;5044136;28;20027;-73
2021/04/27 02:14:28;;;;;;;2.33;2.10;;;6.50;99.90;;;;;;5046900;28;20477;-72
2021/04/27 02:17:32;;;;;;;2.55;2.35;;;6.40;99.90;;;;;;5044576;28;20195;-72
2021/04/27 02:19:59;;;;;;;10.38;4.70;;;6.30;99.90;;;;;;5048670;28;20033;-71
2021/04/27 02:22:27;;;;;;;3.38;2.97;;;6.30;99.90;;;;;;5053683;28;20032;-71
2021/04/27 02:24:55;;;;;;;5.18;2.58;;;6.50;99.90;;;;;;5047801;28;20514;-72
2021/04/27 02:27:22;;;;;;;2.85;2.47;;;6.40;99.90;;;;;;5054545;28;20117;-72
2021/04/27 02:29:48;;;;;;;2.60;2.30;;;6.30;99.90;;;;;;5047296;28;20099;-72
2021/04/27 02:32:14;;;;;;;8.10;2.90;;;6.30;99.90;;;;;;5054329;28;20029;-72
2021/04/27 02:34:43;;;;;;;4.25;2.38;;;6.40;99.90;;;;;;5042667;28;20031;-72
2021/04/27 02:37:09;;;;;;;10.85;2.72;;;6.40;99.90;;;;;;5052155;28;20128;-71
2021/04/27 02:39:35;;;;;;;2.97;2.63;;;6.30;99.90;;;;;;5046929;28;20108;-71
2021/04/27 02:42:03;;;;;;;5.10;2.42;;;6.40;99.90;;;;;;5051351;28;20047;-72
2021/04/27 02:44:29;;;;;;;5.22;2.72;;;6.40;99.90;;;;;;5046185;28;20025;-72
2021/04/27 02:46:55;;;;;;;6.35;2.72;;;6.30;99.90;;;;;;5051013;28;20119;-72
2021/04/27 02:49:20;;;;;;;3.53;2.88;;;6.20;99.90;;;;;;5054613;28;20438;-73
2021/04/27 02:51:46;;;;;;;4.72;2.90;;;6.20;99.90;;;;;;5053661;28;20019;-72
2021/04/27 02:54:11;;;;;;;4.55;2.75;;;6.10;99.90;;;;;;5051484;28;20432;-70
2021/04/27 02:56:37;;;;;;;3.63;2.75;;;6.10;99.90;;;;;;5049264;28;20096;-71
2021/04/27 02:59:05;;;;;;;3.28;2.97;;;6.10;99.90;;;;;;5046212;28;20029;-70
2021/04/27 03:01:31;;;;;;;11.95;4.63;;;6.10;1.00;;;;;;5052052;28;20059;-72
2021/04/27 03:03:56;;;;;;;8.13;3.45;;;6.00;1.00;;;;;;5042154;28;20492;-71
2021/04/27 03:06:22;;;;;;;4.15;2.75;;;6.10;1.00;;;;;;5041537;28;20147;-72
2021/04/27 03:08:47;;;;;;;3.08;2.47;;;6.00;1.00;;;;;;5053693;28;20373;-71
2021/04/27 03:11:14;;;;;;;3.05;2.38;;;6.00;1.00;;;;;;5045316;28;20028;-72
2021/04/27 03:13:39;;;;;;;8.88;3.10;;;5.80;1.00;;;;;;5052647;28;20912;-72
2021/04/27 03:16:05;;;;;;;4.55;2.75;;;5.70;20.60;;;;;;5045847;28;20032;-72
2021/04/27 03:18:31;;;;;;;3.42;2.42;;;5.70;97.70;;;;;;5055730;28;20481;-72
2021/04/27 03:20:56;;;;;;;4.68;2.63;;;5.70;99.90;;;;;;5062537;28;20025;-72
2021/04/27 03:23:22;;;;;;;8.20;2.58;;;5.60;99.90;;;;;;5049243;28;20033;-72
2021/04/27 03:25:48;;;;;;;3.67;2.22;;;5.60;99.90;;;;;;5057276;28;20423;-72
2021/04/27 03:28:14;;;;;;;3.95;2.28;;;5.60;99.90;;;;;;5050620;28;20392;-72
2021/04/27 03:30:40;;;;;;;3.17;2.10;;;5.60;99.90;;;;;;5039710;28;20032;-72
2021/04/27 03:33:05;;;;;;;3.05;2.05;;;5.60;99.90;;;;;;5053923;28;20114;-72
2021/04/27 03:35:31;;;;;;;5.32;2.60;;;5.60;99.90;;;;;;5045790;28;20132;-72
2021/04/27 03:37:57;;;;;;;9.07;2.58;;;5.60;99.90;;;;;;5048052;28;20480;-72
2021/04/27 03:40:23;;;;;;;3.90;2.22;;;5.60;1.00;;;;;;5050450;28;20029;-72
2021/04/27 03:42:49;;;;;;;6.43;2.50;;;5.60;1.00;;;;;;5053911;28;20025;-71
2021/04/27 03:45:18;;;;;;;3.33;2.65;;;5.70;99.90;;;;;;5048519;28;20025;-71
2021/04/27 03:47:44;;;;;;;4.07;2.92;;;5.60;1.00;;;;;;5045833;28;20017;-72
2021/04/27 03:50:18;;;;;;;4.45;3.10;;;5.50;1.00;;;;;;5053404;28;20036;-72
2021/04/27 03:52:44;;;;;;;7.25;2.83;;;5.50;1.00;;;;;;5052670;28;20025;-71
2021/04/27 03:55:10;;;;;;;8.43;3.65;;;5.50;27.00;;;;;;5049623;28;20031;-72
2021/04/27 03:57:36;;;;;;;4.72;2.40;;;5.50;52.30;;;;;;5054662;28;20021;-71
2021/04/27 04:00:07;;;;;;;3.20;2.88;;;5.40;91.80;;;;;;5071833;28;20028;-71
2021/04/27 04:02:33;;;;;;;4.32;2.40;;;5.40;99.90;;;;;;5062981;28;20033;-72
2021/04/27 04:04:59;;;;;;;6.03;2.55;;;5.40;85.20;;;;;;5047264;28;20029;-70
2021/04/27 04:07:25;;;;;;;4.32;2.30;;;5.50;25.90;;;;;;5066569;28;20036;-71
2021/04/27 04:09:50;;;;;;;3.45;2.80;;;5.40;99.20;;;;;;5070492;28;20028;-72
2021/04/27 04:12:16;;;;;;;3.03;2.35;;;5.40;99.90;;;;;;5069412;28;20037;-71
2021/04/27 04:14:42;;;;;;;4.28;2.67;;;5.40;99.90;;;;;;5046422;28;20033;-72
2021/04/27 04:17:07;;;;;;;5.80;2.90;;;5.50;99.90;;;;;;5047866;28;20025;-71
2021/04/27 04:19:33;;;;;;;7.30;2.85;;;5.50;99.90;;;;;;5050659;28;20102;-71
2021/04/27 04:21:59;;;;;;;5.00;2.90;;;5.60;99.90;;;;;;5054919;28;20032;-72
2021/04/27 04:24:24;;;;;;;4.40;2.70;;;5.70;88.00;;;;;;5051077;28;20048;-73
2021/04/27 04:26:50;;;;;;;3.40;2.63;;;5.50;84.10;;;;;;5037971;28;20026;-71
2021/04/27 04:29:16;;;;;;;5.13;3.05;;;5.50;99.90;;;;;;5040948;28;20025;-72
2021/04/27 04:31:41;;;;;;;9.63;3.28;;;5.60;99.90;;;;;;5041645;28;20033;-71
2021/04/27 04:34:07;;;;;;;3.42;2.70;;;5.60;99.90;;;;;;5044898;28;20032;-71
2021/04/27 04:36:32;;;;;;;2.85;2.45;;;5.70;99.90;;;;;;5044594;28;20037;-72
2021/04/27 04:38:58;;;;;;;5.57;2.65;;;5.70;85.70;;;;;;5045320;28;20022;-71
2021/04/27 04:41:24;;;;;;;6.78;2.58;;;5.70;99.90;;;;;;5047303;28;20056;-72
2021/04/27 04:43:49;;;;;;;4.95;3.20;;;5.70;99.90;;;;;;5043495;28;20025;-73
2021/04/27 04:46:15;;;;;;;3.33;2.53;;;5.60;99.90;;;;;;5045451;28;20477;-72
2021/04/27 04:48:41;;;;;;;2.97;2.60;;;5.60;99.90;;;;;;5052141;28;20033;-73
2021/04/27 04:51:07;;;;;;;4.97;2.70;;;5.70;1.00;;;;;;5044465;28;20033;-72
2021/04/27 04:53:32;;;;;;;3.67;2.83;;;5.70;99.90;;;;;;5035811;28;20026;-73
2021/04/27 04:55:58;;;;;;;4.13;3.13;;;6.00;99.90;;;;;;5052558;28;20021;-72
2021/04/27 04:58:23;;;;;;;5.18;3.35;;;6.40;99.90;;;;;;5043729;28;20037;-72
2021/04/27 05:00:49;;;;;;;5.90;3.65;;;6.50;99.90;;;;;;5052580;28;20036;-71
2021/04/27 05:03:15;;;;;;;5.20;2.92;;;6.60;99.90;;;;;;5074430;23;20047;-72
2021/04/27 05:05:42;;;;;;;3.92;2.90;;;6.70;99.90;;;;;;5064130;28;20028;-73
2021/04/27 05:08:11;;;;;;;3.80;3.22;;;6.80;91.30;;;;;;5063041;28;20032;-73
2021/04/27 05:10:37;;;;;;;3.90;3.17;;;7.10;42.90;;;;;;5073639;28;20438;-74
2021/04/27 05:13:03;;;;;;;6.70;2.90;;;7.00;1.00;;;;;;5066843;28;20033;-74
2021/04/27 05:15:29;;;;;;;4.22;3.20;;;7.00;1.00;;;;;;5052471;28;20079;-74
2021/04/27 05:17:55;;;;;;;6.40;2.85;;;7.00;1.00;;;;;;5038500;28;20029;-73
2021/04/27 05:20:22;;;;;;;8.32;3.00;;;7.10;1.00;;;;;;5056470;28;20017;-72
2021/04/27 05:22:49;;;;;;;5.30;2.42;;;7.00;1.00;;;;;;5057680;28;20009;-73
2021/04/27 05:25:15;;;;;;;4.85;2.75;;;7.10;1.00;;;;;;5056610;28;20025;-73
2021/04/27 05:27:40;;;;;;;5.82;2.85;;;7.20;1.00;;;;;;5068055;28;20098;-72
2021/04/27 05:30:07;;;;;;;3.78;3.03;;;7.00;1.00;;;;;;5067018;28;20029;-72
2021/04/27 05:32:33;;;;;;;4.80;2.85;;;7.10;1.00;;;;;;5056898;28;20491;-73
2021/04/27 05:34:59;;;;;;;3.60;2.63;;;7.50;1.00;;;;;;5051001;28;20025;-73
2021/04/27 05:37:24;;;;;;;5.07;3.20;;;7.70;1.00;;;;;;5055508;28;20028;-74
2021/04/27 05:39:50;;;;;;;4.90;3.10;;;8.10;99.90;;;;;;5053422;28;20570;-73
2021/04/27 05:42:16;;;;;;;4.03;2.50;;;8.30;99.90;;;;;;5061448;28;20017;-72
2021/04/27 05:44:41;;;;;;;7.35;2.78;;;8.60;99.90;;;;;;5065599;28;20020;-72
2021/04/27 05:47:07;;;;;;;4.43;3.05;;;8.40;99.90;;;;;;5057254;28;20025;-72
2021/04/27 05:49:33;;;;;;;4.15;2.70;;;9.00;99.90;;;;;;5065776;28;20479;-73
2021/04/27 05:51:58;;;;;;;4.30;2.72;;;9.20;99.90;;;;;;5056495;28;20032;-73
2021/04/27 05:54:24;;;;;;;4.45;2.75;;;9.30;99.90;;;;;;5061251;28;20029;-73
2021/04/27 05:56:49;;;;;;;4.70;2.70;;;9.80;99.90;;;;;;5047276;28;20055;-73
2021/04/27 05:59:15;;;;;;;4.82;3.22;;;10.00;99.90;;;;;;5047251;28;20017;-74
2021/04/27 06:01:41;;;;;;;5.72;3.35;;;10.00;99.90;;;;;;5050792;28;20021;-73
2021/04/27 06:04:07;;;;;;;10.73;4.07;;;10.00;99.90;;;;;;5036443;28;20544;-72
2021/04/27 06:06:36;;;;;;;7.70;2.90;;;9.50;99.90;;;;;;5045072;28;20025;-73
2021/04/27 06:09:06;;;;;;;8.18;3.45;;;9.40;99.90;;;;;;5043024;28;20151;-72
2021/04/27 06:11:32;;;;;;;6.82;3.10;;;9.30;99.90;;;;;;5044719;28;20032;-72
2021/04/27 06:13:57;;;;;;;7.70;3.20;;;9.20;99.90;;;;;;5055633;28;20029;-73
2021/04/27 06:16:24;;;;;;;5.03;3.03;;;9.20;99.90;;;;;;5050839;28;20083;-73
2021/04/27 06:18:51;;;;;;;7.05;3.42;;;8.80;99.90;;;;;;5052048;28;20101;-73
2021/04/27 06:21:16;;;;;;;9.82;3.42;;;8.90;99.90;;;;;;5061276;28;20411;-72
2021/04/27 06:23:42;;;;;;;6.28;3.15;;;8.90;99.90;;;;;;5055937;28;20073;-72
2021/04/27 06:26:08;;;;;;;5.65;3.05;;;9.10;99.90;;;;;;5060121;28;20108;-73
2021/04/27 06:28:33;;;;;;;5.85;3.22;;;9.20;99.90;;;;;;5063453;28;20033;-73
2021/04/27 06:30:59;;;;;;;3.60;3.17;;;9.10;99.90;;;;;;5059063;28;20036;-73
2021/04/27 06:33:25;;;;;;;9.32;3.58;;;8.70;99.90;;;;;;5055681;28;20392;-73
2021/04/27 06:35:50;;;;;;;7.25;3.92;;;9.20;99.90;;;;;;5053551;28;20025;-72
2021/04/27 06:38:17;;;;;;;4.20;3.17;;;9.30;99.90;;;;;;5056519;28;21237;-72
2021/04/27 06:40:49;;;;;;;5.03;3.70;;;8.80;99.90;;;;;;5050964;28;20044;-73
2021/04/27 06:43:15;;;;;;;4.40;3.53;;;9.00;99.90;;;;;;5045413;28;20016;-73
2021/04/27 06:45:41;;;;;;;7.03;3.40;;;9.10;99.90;;;;;;5047173;28;20515;-74
2021/04/27 06:48:07;;;;;;;5.43;3.10;;;9.10;99.90;;;;;;5043794;28;20055;-73
2021/04/27 06:50:35;;;;;;;7.43;4.18;;;9.10;99.90;;;;;;5061646;28;20495;-73
2021/04/27 06:53:01;;;;;;;6.57;3.40;;;8.80;99.90;;;;;;5062274;28;20381;-73
2021/04/27 06:55:27;;;;;;;5.28;4.10;;;8.90;99.90;;;;;;5045154;28;20033;-73
2021/04/27 06:57:52;;;;;;;5.47;3.45;;;9.30;99.90;;;;;;5052774;28;20029;-72
2021/04/27 07:00:19;;;;;;;5.35;4.15;;;9.50;99.90;;;;;;5054891;28;20344;-74
2021/04/27 07:02:45;;;;;;;7.75;3.97;;;9.60;99.90;;;;;;5053848;28;20430;-72
2021/04/27 07:05:11;;;;;;;5.20;3.33;;;9.40;99.90;;;;;;5057244;28;20033;-72
2021/04/27 07:07:37;;;;;;;7.38;4.07;;;9.50;99.90;;;;;;5055252;28;20438;-72
2021/04/27 07:10:03;;;;;;;6.78;3.30;;;9.50;99.90;;;;;;5054935;28;20179;-73
2021/04/27 07:12:29;;;;;;;14.30;4.32;;;9.30;99.90;;;;;;5041396;28;20071;-73
2021/04/27 07:14:54;;;;;;;5.90;3.20;;;9.60;99.90;;;;;;5055212;28;20025;-73
2021/04/27 07:17:20;;;;;;;8.23;3.78;;;9.70;99.90;;;;;;5057153;28;20032;-73
2021/04/27 07:19:46;;;;;;;3.88;3.22;;;9.60;99.90;;;;;;5056091;28;20031;-73
2021/04/27 07:22:12;;;;;;;6.13;3.55;;;9.50;99.90;;;;;;5058039;28;20025;-73
2021/04/27 07:24:38;;;;;;;6.82;2.92;;;9.90;99.90;;;;;;5048801;28;20112;-73
2021/04/27 07:27:04;;;;;;;4.50;3.55;;;10.00;99.90;;;;;;5054181;28;20552;-72
2021/04/27 07:29:30;;;;;;;5.68;3.80;;;9.80;99.90;;;;;;5053400;28;20052;-72
2021/04/27 07:31:55;;;;;;;8.35;3.72;;;9.50;99.90;;;;;;5064601;28;20056;-73
2021/04/27 07:34:21;;;;;;;6.30;3.78;;;9.90;99.90;;;;;;5066309;28;20498;-72
2021/04/27 07:36:47;;;;;;;7.68;3.92;;;10.20;99.90;;;;;;5053537;28;20100;-73
2021/04/27 07:39:15;;;;;;;9.30;4.07;;;10.10;99.90;;;;;;5058583;28;20025;-72
2021/04/27 07:41:42;;;;;;;6.50;3.78;;;10.00;99.90;;;;;;5065459;28;20020;-73
2021/04/27 07:44:17;;;;;;;7.43;4.10;;;10.00;99.90;;;;;;5069203;28;20029;-74
2021/04/27 07:46:43;;;;;;;8.15;4.43;;;10.00;99.90;;;;;;5066048;28;20033;-76
2021/04/27 07:49:09;;;;;;;6.30;4.85;;;10.40;99.90;;;;;;5057064;28;20071;-75
2021/04/27 07:51:36;;;;;;;5.90;3.97;;;10.50;99.90;;;;;;5057219;28;20036;-75
2021/04/27 07:54:02;;;;;;;6.82;4.75;;;10.80;99.90;;;;;;5064834;28;20047;-74
2021/04/27 07:56:29;;;;;;;9.20;3.80;;;10.40;99.90;;;;;;5049284;28;20550;-73
2021/04/27 07:58:59;;;;;;;5.30;4.65;;;10.80;99.90;;;;;;5047126;28;20026;-73
2021/04/27 08:01:26;;;;;;;11.57;4.03;;;10.90;99.90;;;;;;5050158;28;20032;-74
2021/04/27 08:03:52;;;;;;;6.47;4.72;;;10.80;99.90;;;;;;5059571;28;20037;-73
2021/04/27 08:06:17;;;;;;;6.85;4.50;;;11.10;99.90;;;;;;5058408;28;20465;-74
2021/04/27 08:08:43;;;;;;;7.35;4.13;;;11.40;99.90;;;;;;5061743;28;20044;-73
2021/04/27 08:11:09;;;;;;;7.30;4.63;;;11.40;99.90;;;;;;5057102;28;20040;-74
2021/04/27 08:13:35;;;;;;;5.03;4.03;;;11.20;99.90;;;;;;5055039;28;20049;-76
2021/04/27 08:16:00;;;;;;;6.95;4.43;;;11.70;99.90;;;;;;5035192;28;20261;-74
2021/04/27 08:18:26;;;;;;;6.15;4.45;;;11.60;99.90;;;;;;5033855;28;20400;-75
2021/04/27 08:20:52;;;;;;;5.57;4.45;;;11.60;99.90;;;;;;5048596;28;20017;-75
2021/04/27 08:23:17;;;;;;;7.30;4.80;;;11.30;99.90;;;;;;5063045;28;20150;-74
2021/04/27 08:25:43;;;;;;;4.82;4.43;;;11.30;99.90;;;;;;5072291;28;20029;-75
2021/04/27 08:28:09;;;;;;;5.38;4.88;;;11.30;99.90;;;;;;5071147;28;20037;-75
2021/04/27 08:30:34;;;;;;;6.03;4.57;;;11.40;99.90;;;;;;5072056;28;20051;-75
2021/04/27 08:33:00;;;;;;;5.32;4.82;;;11.80;99.90;;;;;;5052427;28;20016;-74
2021/04/27 08:35:27;;;;;;;5.22;4.50;;;12.00;99.90;;;;;;5042135;28;20026;-74
2021/04/27 08:37:53;;;;;;;9.00;5.00;;;12.00;99.90;;;;;;5052163;28;20068;-74
2021/04/27 08:40:19;;;;;;;7.53;5.03;;;12.10;99.90;;;;;;5049108;28;20021;-75
2021/04/27 08:42:49;;;;;;;7.50;4.50;;;11.90;99.90;;;;;;5068402;28;20082;-74
2021/04/27 08:45:16;;;;;;;6.43;4.97;;;12.10;99.90;;;;;;5064504;28;20017;-74
2021/04/27 08:47:43;;;;;;;6.15;4.72;;;12.20;99.90;;;;;;5071661;28;20281;-74
2021/04/27 08:50:11;;;;;;;6.03;5.43;;;12.10;99.90;;;;;;5071459;28;20025;-74
2021/04/27 08:52:37;;;;;;;5.30;4.70;;;12.10;99.90;;;;;;5057655;28;20124;-74
2021/04/27 08:55:03;;;;;;;7.10;5.22;;;12.60;98.50;;;;;;5042912;28;20128;-73
2021/04/27 08:57:29;;;;;;;7.55;4.93;;;12.70;94.50;;;;;;5041231;28;20029;-74
2021/04/27 08:59:55;;;;;;;7.88;5.00;;;12.80;92.80;;;;;;5050110;28;20036;-76
2021/04/27 09:02:30;;;;;;;6.45;5.10;;;12.50;94.70;;;;;;5047026;28;20083;-75
2021/04/27 09:04:56;;;;;;;8.35;5.85;;;12.60;94.70;;;;;;5054618;28;20025;-73
2021/04/27 09:07:23;;;;;;;10.05;5.25;;;13.00;91.80;;;;;;5046773;28;20365;-74
2021/04/27 09:09:51;;;;;;;7.30;4.57;;;13.00;90.20;;;;;;5054085;28;20029;-74
2021/04/27 09:12:22;;;;;;;8.05;5.85;;;13.10;89.70;;;;;;5053910;28;20032;-73
2021/04/27 09:14:49;;;;;;;5.00;4.50;;;13.10;86.30;;;;;;5051332;28;20043;-73
2021/04/27 09:17:15;;;;;;;8.23;5.32;;;12.90;88.30;;;;;;5038366;28;20034;-75
2021/04/27 09:19:52;;;;;;;7.20;5.75;;;13.00;87.40;;;;;;5046650;28;20028;-74
2021/04/27 09:22:26;;;;;;;9.50;5.38;;;13.00;83.20;;;;;;5052588;28;20120;-73
2021/04/27 09:24:57;;;;;;;6.85;5.63;;;12.60;85.80;;;;;;5032978;28;20022;-74
2021/04/27 09:27:32;;;;;;;7.13;5.40;;;12.80;90.90;;;;;;5035075;28;20017;-73
2021/04/27 09:30:09;;;;;;;6.50;4.80;;;13.20;82.50;;;;;;5044945;28;20021;-74
2021/04/27 09:32:39;;;;;;;8.18;6.22;;;13.30;78.10;;;;;;5043427;28;20122;-73
2021/04/27 09:35:33;;;;;;;6.35;5.75;;;13.70;76.20;;;;;;5055372;28;20108;-74
2021/04/27 09:38:12;;;;;;;8.88;5.57;;;13.60;65.40;;;;;;5062333;28;20052;-74
2021/04/27 09:40:51;;;;;;;6.53;5.15;;;13.30;69.00;;;;;;5054995;28;20025;-74
2021/04/27 09:43:18;;;;;;;8.18;5.45;;;13.80;68.60;;;;;;5053406;28;20037;-75
2021/04/27 09:45:49;;;;;;;6.53;5.75;;;13.90;64.90;;;;;;5045352;28;20036;-74
2021/04/27 09:48:27;;;;;;;;;;;13.70;57.50;;;;;;5055646;28;20094;-73
2021/04/27 09:50:53;;;;;;;6.05;5.22;;;13.50;60.10;;;;;;5058194;28;19905;-74
2021/04/27 09:53:55;;;;;;;7.57;5.63;;;13.90;58.30;;;;;;5053588;28;20534;-74
2021/04/27 09:56:41;;;;;;;6.45;5.13;;;13.60;52.00;;;;;;5052668;28;20021;-74
2021/04/27 09:59:18;;;;;;;8.70;5.53;;;13.60;55.90;;;;;;5048469;28;20029;-72
2021/04/27 10:01:50;;;;;;;8.27;6.05;;;14.20;53.80;;;;;;5059703;28;20039;-71
2021/04/27 10:04:16;;;;;;;6.97;5.22;;;14.20;52.50;;;;;;5057097;28;20053;-73
2021/04/27 10:06:46;;;;;;;7.85;5.55;;;14.40;49.60;;;;;;5052192;28;20029;-72
2021/04/27 10:09:12;;;;;;;10.85;5.85;;;14.50;48.50;;;;;;5058489;28;20017;-71
2021/04/27 10:11:39;;;;;;;11.00;6.50;;;14.80;45.00;;;;;;5055153;28;20032;-71
2021/04/27 10:14:08;;;;;;;7.57;5.53;;;15.00;42.40;;;;;;5050644;28;20029;-73
2021/04/27 10:16:36;;;;;;;9.05;6.15;;;14.60;39.50;;;;;;5054339;28;20044;-72
2021/04/27 10:19:03;;;;;;;7.07;6.22;;;14.80;40.40;;;;;;5052155;28;20031;-73
2021/04/27 10:21:29;;;;;;;8.18;6.53;;;15.10;40.50;;;;;;5048140;28;20029;-75
2021/04/27 10:23:57;;;;;;;8.50;6.65;;;14.90;36.90;;;;;;5051937;28;20152;-73
2021/04/27 10:26:24;;;;;;;7.32;6.63;;;15.20;34.30;;;;;;5037963;28;20022;-72
2021/04/27 10:29:17;;;;;;;6.53;5.88;;;15.10;30.20;;;;;;5037728;28;20048;-72
2021/04/27 10:31:42;;;;;;;7.63;6.22;;;15.10;27.90;;;;;;5037441;28;20458;-72
2021/04/27 10:34:11;;;;;;;11.27;6.55;;;15.10;30.10;;;;;;5036559;28;20110;-72
2021/04/27 10:36:58;;;;;;;6.65;6.00;;;15.30;28.20;;;;;;5037388;28;20374;-73
2021/04/27 10:39:37;;;;;;;9.95;6.35;;;15.20;28.00;;;;;;5047499;28;20030;-73
2021/04/27 10:42:27;;;;;;;10.07;6.65;;;15.20;28.20;;;;;;5035982;28;20025;-72
2021/04/27 10:45:05;;;;;;;8.20;6.53;;;14.80;25.50;;;;;;5040967;28;20021;-73
2021/04/27 10:47:42;;;;;;;8.45;5.57;;;14.90;26.50;;;;;;5055284;28;20104;-73
2021/04/27 10:50:24;;;;;;;8.65;6.68;;;15.30;24.40;;;;;;5055355;28;20503;-74
2021/04/27 10:52:49;;;;;;;8.63;6.18;;;15.70;21.20;;;;;;5057371;28;20021;-73
2021/04/27 10:55:29;;;;;;;7.57;6.07;;;15.70;16.60;;;;;;5056979;28;20116;-72
2021/04/27 10:57:58;;;;;;;10.77;7.05;;;15.90;15.80;;;;;;5057094;28;20040;-73
2021/04/27 11:00:42;;;;;;;12.13;6.75;;;15.60;13.70;;;;;;5062982;28;20025;-73
2021/04/27 11:03:16;;;;;;;9.18;7.00;;;15.00;13.70;;;;;;5068134;28;20036;-72
2021/04/27 11:06:06;;;;;;;7.68;5.55;;;15.10;16.10;;;;;;5066635;28;20049;-73
2021/04/27 11:08:47;;;;;;;8.82;5.93;;;15.30;13.40;;;;;;5057039;28;20025;-73
2021/04/27 11:11:39;;;;;;;10.07;6.25;;;15.20;12.90;;;;;;5052066;28;20025;-73
2021/04/27 11:14:20;;;;;;;7.97;6.55;;;15.80;13.70;;;;;;5054585;28;20112;-74
2021/04/27 11:16:56;;;;;;;6.90;5.88;;;16.30;9.50;;;;;;5050615;28;20067;-73
2021/04/27 11:19:26;;;;;;;8.60;6.93;;;16.40;5.90;;;;;;5056658;28;20057;-72
2021/04/27 11:21:55;;;;;;;8.15;5.63;;;16.30;4.00;;;;;;5049474;28;20070;-74
2021/04/27 11:24:39;;;;;;;7.90;6.45;;;16.20;5.00;;;;;;5052543;28;20017;-73
2021/04/27 11:27:18;;;;;;;7.80;6.70;;;16.20;4.50;;;;;;5052548;28;20052;-75
2021/04/27 11:29:54;;;;;;;7.35;6.70;;;16.50;5.20;;;;;;4998587;28;20242;-73
2021/04/27 11:32:19;;;;;;;7.45;6.53;;;16.50;2.80;;;;;;5056051;28;20112;-74
2021/04/27 11:34:54;;;;;;;9.35;6.90;;;16.10;2.30;;;;;;5045020;28;20045;-75
2021/04/27 11:37:39;;;;;;;7.78;6.95;;;16.00;1.90;;;;;;5055410;28;20024;-73
2021/04/27 11:40:19;;;;;;;7.50;6.20;;;16.40;1.00;;;;;;5043694;28;20026;-73
2021/04/27 11:42:50;;;;;;;6.32;5.72;;;16.60;1.00;;;;;;5055881;28;20021;-75
2021/04/27 11:45:17;;;;;;;11.57;7.07;;;16.60;1.00;;;;;;5054338;28;20025;-74
2021/04/27 11:47:47;;;;;;;11.95;7.80;;;16.50;1.00;;;;;;5054339;28;20055;-74
2021/04/27 11:50:16;;;;;;;11.60;7.60;;;16.60;1.00;;;;;;5053966;28;20508;-75
2021/04/27 11:52:41;;;;;;;8.15;5.93;;;16.60;1.00;;;;;;5052852;28;20033;-75
2021/04/27 11:55:36;;;;;;;6.93;6.22;;;16.60;1.00;;;;;;5036052;28;20032;-75
2021/04/27 11:58:18;;;;;;;9.25;7.05;;;17.00;1.00;;;;;;5047143;28;20025;-75
2021/04/27 12:00:54;;;;;;;7.50;6.20;;;17.10;1.00;;;;;;5047501;28;20060;-75
2021/04/27 12:03:40;;;;;;;8.73;6.75;;;17.10;1.00;;;;;;5053979;28;20039;-75
2021/04/27 12:06:06;;;;;;;8.38;7.28;;;17.40;1.00;;;;;;5048257;28;20040;-75
2021/04/27 12:08:43;;;;;;;9.30;5.80;;;17.40;1.00;;;;;;5047161;28;20029;-75
2021/04/27 12:11:18;;;;;;;11.75;6.57;;;17.40;1.00;;;;;;5055738;28;20025;-74
2021/04/27 12:13:52;;;;;;;6.78;5.85;;;17.50;1.00;;;;;;5060129;28;20021;-75
2021/04/27 12:16:22;;;;;;;7.82;6.30;;;17.60;1.00;;;;;;5040889;28;20355;-74
2021/04/27 12:18:59;;;;;;;10.80;6.15;;;17.20;1.00;;;;;;5044619;28;20047;-75
2021/04/27 12:21:50;;;;;;;7.20;5.57;;;17.30;1.00;;;;;;5067818;28;20025;-74
2021/04/27 12:24:19;;;;;;;6.20;5.60;;;17.60;1.00;;;;;;5067221;28;20036;-72
2021/04/27 12:27:07;;;;;;;9.38;5.45;;;17.60;1.00;;;;;;5068338;28;20036;-73
2021/04/27 12:29:50;;;;;;;7.18;6.47;;;17.70;1.00;;;;;;5054316;28;20104;-74
2021/04/27 12:32:19;;;;;;;9.20;6.55;;;17.70;1.00;;;;;;5054466;28;20488;-73
2021/04/27 12:35:12;;;;;;;7.28;5.88;;;17.50;1.00;;;;;;5039125;28;20373;-75
2021/04/27 12:37:40;;;;;;;11.35;5.85;;;17.80;1.00;;;;;;5061176;28;20452;-74
2021/04/27 12:40:17;;;;;;;10.10;6.45;;;17.70;1.00;;;;;;5053167;28;20040;-75
2021/04/27 12:42:52;;;;;;;7.63;6.85;;;17.70;1.00;;;;;;5038055;28;20408;-74
2021/04/27 12:45:18;;;;;;;8.27;7.43;;;17.90;1.00;;;;;;5055130;28;20070;-74
2021/04/27 12:47:48;;;;;;;7.28;6.47;;;18.10;1.00;;;;;;5054561;28;20029;-76
2021/04/27 12:50:19;;;;;;;7.55;6.82;;;18.00;1.00;;;;;;5068158;28;20102;-75
2021/04/27 12:52:57;;;;;;;8.45;6.25;;;18.10;1.00;;;;;;5056501;28;20029;-75
2021/04/27 12:55:25;;;;;;;9.85;5.70;;;18.10;1.00;;;;;;5053009;28;20512;-75
2021/04/27 12:57:52;;;;;;;6.35;5.50;;;17.90;1.00;;;;;;5055056;28;20394;-74
2021/04/27 13:00:21;;;;;;;6.18;5.38;;;18.10;1.00;;;;;;5054999;28;20017;-74
2021/04/27 13:02:48;;;;;;;9.20;5.93;;;18.20;1.00;;;;;;5055125;28;20035;-74
2021/04/27 13:05:24;;;;;;;6.38;5.78;;;18.30;1.00;;;;;;5055517;28;20021;-74